Time;durP1;ratioP1;P1;durP2;ratioP2;P2;SDS_P1;SDS_P2;PMS_P1;PMS_P2;Temp;Humidity;BMP_temperature;BMP_pressure;BME280_temperature;BME280_humidity;BME280_pressure;Samples;Min_cycle;Max_cycle;Signal;HPM_P1;HPM_P2
2021/04/29 00:01:17;;;;;;;26.53;19.80;;;11.00;99.90;;;;;;6251156;28;20471;-64
2021/04/29 00:04:20;;;;;;;22.40;19.40;;;11.00;99.90;;;;;;6250738;28;20471;-62
2021/04/29 00:07:22;;;;;;;19.63;17.53;;;11.10;99.90;;;;;;6251247;28;20478;-65
2021/04/29 00:10:29;;;;;;;23.57;19.17;;;11.10;99.90;;;;;;6250877;28;20483;-63
2021/04/29 00:13:31;;;;;;;26.87;19.63;;;11.10;99.90;;;;;;6252113;28;20470;-64
2021/04/29 00:16:33;;;;;;;22.80;19.37;;;11.00;99.90;;;;;;6251929;28;20474;-63
2021/04/29 00:19:36;;;;;;;26.33;20.53;;;11.10;99.90;;;;;;6252748;28;20474;-63
2021/04/29 00:22:38;;;;;;;25.63;20.40;;;11.10;99.90;;;;;;6252710;28;20482;-63
2021/04/29 00:25:41;;;;;;;25.60;20.03;;;11.10;99.90;;;;;;6252925;28;20814;-63
2021/04/29 00:28:43;;;;;;;23.83;20.47;;;11.10;99.90;;;;;;6251734;28;20475;-63
2021/04/29 00:31:45;;;;;;;26.57;21.47;;;11.10;99.90;;;;;;6252544;28;20467;-63
2021/04/29 00:34:48;;;;;;;26.47;20.30;;;11.10;99.90;;;;;;6252310;28;20482;-64
2021/04/29 00:37:50;;;;;;;26.07;20.90;;;11.10;99.90;;;;;;6252519;28;20477;-64
2021/04/29 00:40:53;;;;;;;29.97;21.60;;;11.10;99.90;;;;;;6252194;28;20467;-63
2021/04/29 00:43:56;;;;;;;31.70;20.93;;;11.10;99.90;;;;;;6247764;28;20497;-63
2021/04/29 00:47:01;;;;;;;32.00;22.13;;;11.10;99.90;;;;;;6251870;28;20503;-63
2021/04/29 00:50:06;;;;;;;28.93;22.13;;;11.10;99.90;;;;;;6251979;28;20467;-64
2021/04/29 00:53:08;;;;;;;31.47;22.77;;;11.10;99.90;;;;;;6251741;28;20471;-63
2021/04/29 00:56:11;;;;;;;35.10;24.70;;;11.10;99.90;;;;;;6252061;28;20470;-64
2021/04/29 00:59:13;;;;;;;34.73;23.87;;;11.00;99.90;;;;;;6251683;28;20806;-64
2021/04/29 01:02:16;;;;;;;34.17;23.53;;;11.00;99.90;;;;;;6251857;28;20487;-63
2021/04/29 01:05:23;;;;;;;28.87;21.90;;;11.00;99.90;;;;;;6251368;28;20605;-63
2021/04/29 01:08:30;;;;;;;35.23;23.73;;;11.00;99.90;;;;;;6251680;28;20609;-64
2021/04/29 01:11:34;;;;;;;30.93;22.97;;;11.10;99.90;;;;;;6251775;28;20470;-64
2021/04/29 01:14:37;;;;;;;31.70;23.23;;;11.10;99.90;;;;;;6251401;28;20479;-64
2021/04/29 01:17:44;;;;;;;30.23;23.57;;;11.10;99.90;;;;;;6251653;28;20486;-63
2021/04/29 01:20:49;;;;;;;25.33;20.93;;;11.00;99.90;;;;;;6251594;28;20481;-63
2021/04/29 01:23:58;;;;;;;27.00;22.40;;;11.00;99.90;;;;;;6251440;28;20475;-64
2021/04/29 01:27:02;;;;;;;32.80;22.73;;;11.10;99.90;;;;;;6226352;28;20452;-63
2021/04/29 01:30:07;;;;;;;30.27;23.50;;;11.10;99.90;;;;;;6226779;28;20444;-63
2021/04/29 01:33:09;;;;;;;35.73;25.77;;;11.10;99.90;;;;;;6226169;28;20459;-63
2021/04/29 01:36:15;;;;;;;35.80;24.00;;;11.10;99.90;;;;;;6226663;28;20511;-63
2021/04/29 01:39:19;;;;;;;36.50;25.23;;;11.10;99.90;;;;;;6226449;28;20463;-63
2021/04/29 01:42:23;;;;;;;38.43;25.77;;;11.00;99.90;;;;;;6226145;28;20491;-63
2021/04/29 01:45:25;;;;;;;38.37;25.60;;;10.90;99.90;;;;;;6222209;28;20478;-63
2021/04/29 01:48:28;;;;;;;41.10;27.17;;;10.90;99.90;;;;;;6225970;28;20982;-63
2021/04/29 01:51:33;;;;;;;37.60;26.70;;;10.80;99.90;;;;;;6226007;28;20471;-63
2021/04/29 01:54:37;;;;;;;38.70;25.50;;;10.80;99.90;;;;;;6226491;28;20491;-63
2021/04/29 01:57:40;;;;;;;34.40;26.40;;;10.70;99.90;;;;;;6226074;28;20467;-63
2021/04/29 02:00:44;;;;;;;37.90;25.77;;;10.80;99.90;;;;;;6226283;28;20529;-63
2021/04/29 02:03:47;;;;;;;39.57;25.43;;;10.80;99.90;;;;;;6225717;28;20495;-63
2021/04/29 02:06:49;;;;;;;38.77;25.80;;;10.80;99.90;;;;;;6225829;28;20940;-63
2021/04/29 02:09:51;;;;;;;32.20;25.03;;;10.80;99.90;;;;;;6225786;28;20487;-63
2021/04/29 02:12:56;;;;;;;34.77;24.90;;;10.80;99.90;;;;;;6225645;28;20980;-63
2021/04/29 02:16:03;;;;;;;37.60;26.27;;;10.80;99.90;;;;;;6225842;28;20467;-63
2021/04/29 02:19:07;;;;;;;37.00;25.43;;;10.80;99.90;;;;;;6225866;28;20487;-63
2021/04/29 02:22:12;;;;;;;36.07;24.90;;;10.80;99.90;;;;;;6225897;28;20479;-64
2021/04/29 02:25:15;;;;;;;37.27;25.20;;;10.80;99.90;;;;;;6225608;28;20472;-63
2021/04/29 02:28:19;;;;;;;31.93;23.90;;;10.80;99.90;;;;;;6225647;28;20472;-64
2021/04/29 02:31:23;;;;;;;34.73;26.17;;;10.90;99.90;;;;;;6225532;28;20468;-63
2021/04/29 02:34:25;;;;;;;38.33;25.60;;;10.90;99.90;;;;;;6224988;28;20464;-63
2021/04/29 02:37:27;;;;;;;40.07;27.47;;;10.90;99.90;;;;;;6225565;28;20476;-65
2021/04/29 02:40:30;;;;;;;36.07;25.63;;;11.10;99.90;;;;;;6225207;28;20940;-65
2021/04/29 02:43:40;;;;;;;31.70;24.30;;;11.00;99.90;;;;;;6225092;28;20566;-65
2021/04/29 02:46:43;;;;;;;39.50;28.20;;;11.00;99.90;;;;;;6225392;28;20824;-65
2021/04/29 02:49:45;;;;;;;38.63;27.00;;;11.10;99.90;;;;;;6220765;28;20463;-65
2021/04/29 02:52:51;;;;;;;32.83;25.77;;;11.00;99.90;;;;;;6224237;28;20486;-63
2021/04/29 02:55:53;;;;;;;34.60;26.33;;;11.00;99.90;;;;;;6225090;28;20474;-64
2021/04/29 02:58:56;;;;;;;32.83;25.73;;;11.00;99.90;;;;;;6224857;28;20472;-63
2021/04/29 03:01:59;;;;;;;37.87;27.60;;;10.90;99.90;;;;;;6225032;28;20484;-64
2021/04/29 03:05:02;;;;;;;36.63;27.03;;;11.00;99.90;;;;;;6224580;28;20471;-64
2021/04/29 03:08:05;;;;;;;38.03;28.70;;;11.00;99.90;;;;;;6225072;28;20501;-64
2021/04/29 03:11:07;;;;;;;39.90;27.07;;;10.90;99.90;;;;;;6224835;28;20487;-64
2021/04/29 03:14:10;;;;;;;38.40;26.70;;;10.90;99.90;;;;;;6224870;28;20475;-64
2021/04/29 03:17:14;;;;;;;39.80;29.60;;;10.90;99.90;;;;;;6224734;28;20971;-64
2021/04/29 03:20:17;;;;;;;42.33;28.73;;;10.90;99.90;;;;;;6224586;28;20487;-64
2021/04/29 03:23:19;;;;;;;43.93;29.80;;;11.00;99.90;;;;;;6224625;28;20494;-63
2021/04/29 03:26:21;;;;;;;49.63;31.50;;;10.90;99.90;;;;;;6224836;28;20468;-63
2021/04/29 03:29:24;;;;;;;41.63;31.20;;;10.90;99.90;;;;;;6224738;28;20479;-64
2021/04/29 03:32:26;;;;;;;45.40;34.10;;;10.90;99.90;;;;;;6224523;28;20470;-65
2021/04/29 03:35:29;;;;;;;44.57;33.17;;;10.80;99.90;;;;;;6224611;28;20819;-64
2021/04/29 03:38:31;;;;;;;48.43;31.90;;;10.90;99.90;;;;;;6224464;28;20483;-64
2021/04/29 03:41:33;;;;;;;53.13;31.63;;;10.90;99.90;;;;;;6224637;28;20472;-65
2021/04/29 03:44:36;;;;;;;52.00;34.10;;;10.90;99.90;;;;;;6224205;28;20475;-64
2021/04/29 03:47:39;;;;;;;45.20;31.67;;;10.80;99.90;;;;;;6224472;28;20467;-64
2021/04/29 03:50:41;;;;;;;47.07;33.10;;;10.80;99.90;;;;;;6224282;28;20534;-64
2021/04/29 03:53:43;;;;;;;47.53;30.93;;;10.80;99.90;;;;;;6224368;28;20510;-65
2021/04/29 03:56:46;;;;;;;48.73;32.00;;;10.80;99.90;;;;;;6211081;28;20483;-65
2021/04/29 03:59:48;;;;;;;49.87;35.53;;;10.80;99.90;;;;;;6224577;28;20471;-64
2021/04/29 04:02:51;;;;;;;48.37;35.10;;;10.70;99.90;;;;;;6225210;28;20483;-63
2021/04/29 04:05:53;;;;;;;56.53;36.60;;;10.80;99.90;;;;;;6228470;28;20476;-65
2021/04/29 04:08:55;;;;;;;60.33;37.10;;;10.80;99.90;;;;;;6228510;28;20494;-65
2021/04/29 04:11:57;;;;;;;63.07;37.63;;;10.90;99.90;;;;;;6228404;28;20463;-63
2021/04/29 04:15:00;;;;;;;58.63;35.53;;;10.90;99.90;;;;;;6228283;28;20513;-63
2021/04/29 04:18:02;;;;;;;60.53;37.97;;;11.00;99.90;;;;;;6228377;28;20458;-64
2021/04/29 04:21:05;;;;;;;52.70;34.40;;;11.00;99.90;;;;;;6228251;28;20462;-65
2021/04/29 04:24:07;;;;;;;52.10;37.00;;;11.10;99.90;;;;;;6228294;28;20480;-62
2021/04/29 04:27:09;;;;;;;52.30;34.20;;;11.10;99.90;;;;;;6228447;28;20767;-60
2021/04/29 04:30:14;;;;;;;50.80;33.70;;;11.30;99.90;;;;;;6228077;28;20448;-60
2021/04/29 04:33:16;;;;;;;51.30;34.50;;;11.30;99.90;;;;;;6228121;28;20460;-62
2021/04/29 04:36:19;;;;;;;44.73;34.60;;;11.40;99.90;;;;;;6228151;28;20468;-61
2021/04/29 04:39:21;;;;;;;46.67;31.93;;;11.40;99.90;;;;;;6227684;28;20475;-61
2021/04/29 04:42:23;;;;;;;48.67;35.43;;;11.40;99.90;;;;;;6227600;28;20916;-61
2021/04/29 04:45:26;;;;;;;46.67;34.50;;;11.30;99.90;;;;;;6227745;28;20476;-61
2021/04/29 04:48:29;;;;;;;46.23;33.47;;;11.30;99.90;;;;;;6227811;28;20960;-60
2021/04/29 04:51:32;;;;;;;55.23;35.30;;;11.40;99.90;;;;;;6227328;28;20506;-64
2021/04/29 04:54:35;;;;;;;47.53;32.60;;;11.40;99.90;;;;;;6223518;28;20480;-60
2021/04/29 04:57:38;;;;;;;50.33;33.40;;;11.50;99.90;;;;;;6227819;28;20476;-64
2021/04/29 05:00:41;;;;;;;50.60;32.80;;;11.50;99.90;;;;;;6227715;28;20472;-64
2021/04/29 05:03:43;;;;;;;47.03;32.53;;;11.50;99.90;;;;;;6227010;28;20486;-64
2021/04/29 05:06:45;;;;;;;47.70;32.70;;;11.60;99.90;;;;;;6227182;28;20522;-64
2021/04/29 05:09:47;;;;;;;52.97;33.37;;;11.70;99.90;;;;;;6227403;28;20471;-64
2021/04/29 05:12:49;;;;;;;49.97;33.60;;;11.70;99.90;;;;;;6226836;28;20498;-65
2021/04/29 05:15:52;;;;;;;47.43;30.80;;;11.80;99.90;;;;;;6226431;28;20848;-61
2021/04/29 05:18:55;;;;;;;47.73;31.27;;;11.80;99.90;;;;;;6226609;28;20484;-60
2021/04/29 05:21:57;;;;;;;44.67;31.77;;;11.90;99.90;;;;;;6226593;28;20476;-60
2021/04/29 05:24:59;;;;;;;44.57;30.60;;;11.90;99.90;;;;;;6226739;28;20818;-61
2021/04/29 05:28:03;;;;;;;43.70;31.77;;;12.00;99.90;;;;;;6227133;28;20468;-63
2021/04/29 05:31:06;;;;;;;43.33;31.83;;;12.00;99.90;;;;;;6226884;28;20484;-62
2021/04/29 05:34:08;;;;;;;43.67;30.30;;;11.90;99.90;;;;;;6226431;28;20484;-61
2021/04/29 05:37:10;;;;;;;40.80;30.77;;;12.00;99.90;;;;;;6226573;28;20501;-65
2021/04/29 05:40:13;;;;;;;52.10;32.40;;;12.00;99.90;;;;;;6226649;28;20472;-65
2021/04/29 05:43:16;;;;;;;40.23;28.57;;;12.10;99.90;;;;;;6226195;28;20551;-63
2021/04/29 05:46:19;;;;;;;40.93;29.07;;;12.30;99.90;;;;;;6226188;28;20818;-62
2021/04/29 05:49:21;;;;;;;43.47;27.83;;;12.40;99.90;;;;;;6226266;28;20472;-63
2021/04/29 05:52:23;;;;;;;40.80;26.63;;;12.50;99.90;;;;;;6226007;28;21106;-62
2021/04/29 05:55:25;;;;;;;34.87;27.60;;;12.50;99.90;;;;;;6226155;28;20468;-63
2021/04/29 05:58:28;;;;;;;35.20;27.93;;;12.50;99.90;;;;;;6225753;28;20479;-63
2021/04/29 06:01:31;;;;;;;40.90;26.63;;;12.60;99.90;;;;;;6225983;28;20476;-63
2021/04/29 06:04:36;;;;;;;35.70;28.23;;;12.90;99.90;;;;;;6225472;28;21071;-63
2021/04/29 06:07:38;;;;;;;35.20;26.27;;;13.00;99.90;;;;;;6226237;28;20467;-62
2021/04/29 06:10:40;;;;;;;31.20;25.90;;;13.00;99.90;;;;;;6225721;28;20522;-63
2021/04/29 06:13:44;;;;;;;34.93;26.17;;;13.20;99.90;;;;;;6225779;28;20472;-63
2021/04/29 06:16:47;;;;;;;34.33;27.83;;;13.50;99.90;;;;;;6225909;28;20913;-63
2021/04/29 06:19:50;;;;;;;32.70;25.50;;;13.90;99.90;;;;;;6225293;28;20472;-63
2021/04/29 06:22:53;;;;;;;32.37;24.20;;;14.30;99.70;;;;;;6224297;28;20490;-63
2021/04/29 06:25:55;;;;;;;33.57;23.67;;;14.60;99.20;;;;;;6223813;28;20476;-63
2021/04/29 06:28:57;;;;;;;29.33;23.70;;;15.00;98.60;;;;;;6240432;28;20579;-63
2021/04/29 06:32:00;;;;;;;30.73;25.13;;;15.50;96.70;;;;;;6247460;28;20462;-63
2021/04/29 06:35:03;;;;;;;26.73;22.73;;;16.10;96.40;;;;;;6241543;28;20471;-65
2021/04/29 06:38:06;;;;;;;30.73;25.20;;;16.50;95.60;;;;;;6237665;28;20475;-64
2021/04/29 06:41:08;;;;;;;25.23;22.20;;;17.50;93.60;;;;;;6248080;28;21044;-65
2021/04/29 06:44:11;;;;;;;26.97;21.33;;;18.20;91.40;;;;;;6248498;28;20493;-65
2021/04/29 06:47:17;;;;;;;29.70;25.80;;;18.70;90.30;;;;;;6248293;28;20467;-65
2021/04/29 06:50:19;;;;;;;27.63;24.63;;;19.50;87.40;;;;;;6248581;28;20478;-63
2021/04/29 06:53:21;;;;;;;28.03;25.17;;;20.00;81.90;;;;;;6249313;28;20470;-64
2021/04/29 06:56:23;;;;;;;28.57;25.03;;;19.70;80.60;;;;;;6249463;28;20494;-64
2021/04/29 06:59:36;;;;;;;28.60;23.97;;;19.70;81.40;;;;;;6248908;28;20620;-66
2021/04/29 07:02:39;;;;;;;28.77;25.67;;;20.00;80.20;;;;;;6249004;28;20540;-63
2021/04/29 07:05:42;;;;;;;26.63;23.70;;;20.90;79.70;;;;;;6239531;28;20228;-63
2021/04/29 07:08:46;;;;;;;26.43;22.70;;;22.10;73.90;;;;;;6248091;28;20346;-63
2021/04/29 07:11:48;;;;;;;25.63;23.03;;;23.40;69.10;;;;;;6248535;28;20220;-63
2021/04/29 07:14:50;;;;;;;30.60;25.27;;;24.40;62.10;;;;;;6244890;28;20224;-63
2021/04/29 07:17:58;;;;;;;25.63;23.00;;;25.10;58.00;;;;;;6248346;28;20244;-64
2021/04/29 07:21:01;;;;;;;26.67;23.97;;;25.90;54.80;;;;;;6248508;28;20216;-65
2021/04/29 07:24:04;;;;;;;27.63;24.20;;;26.80;52.50;;;;;;6248469;28;20234;-65
2021/04/29 07:27:06;;;;;;;27.60;24.80;;;27.90;49.30;;;;;;6248464;28;20218;-65
2021/04/29 07:30:11;;;;;;;29.40;26.33;;;29.20;45.90;;;;;;6248971;28;20214;-62
2021/04/29 07:33:15;;;;;;;29.03;25.57;;;30.40;43.70;;;;;;6248637;28;20224;-62
2021/04/29 07:36:18;;;;;;;27.43;24.73;;;30.20;41.20;;;;;;6249020;28;20200;-62
2021/04/29 07:39:20;;;;;;;26.67;24.07;;;29.80;42.10;;;;;;6252660;28;20234;-62
2021/04/29 07:42:23;;;;;;;29.50;26.60;;;30.80;40.50;;;;;;6253221;28;20650;-63
2021/04/29 07:45:25;;;;;;;30.20;27.20;;;32.00;38.70;;;;;;6253580;28;20240;-66
2021/04/29 07:48:28;;;;;;;29.03;25.73;;;32.20;36.50;;;;;;6253155;28;20231;-63
2021/04/29 07:51:31;;;;;;;28.70;26.03;;;30.70;37.80;;;;;;6253235;28;20244;-64
2021/04/29 07:54:35;;;;;;;29.47;26.60;;;29.30;39.70;;;;;;6253190;28;20247;-70
2021/04/29 07:57:37;;;;;;;30.77;27.57;;;28.20;41.60;;;;;;6253444;28;20293;-64
2021/04/29 08:00:39;;;;;;;32.67;29.37;;;26.80;44.20;;;;;;6253099;28;20232;-64
2021/04/29 08:03:43;;;;;;;30.67;27.37;;;26.00;46.10;;;;;;6252790;28;20249;-64
2021/04/29 08:06:45;;;;;;;30.20;27.10;;;27.80;44.50;;;;;;6246934;28;20285;-69
2021/04/29 08:09:48;;;;;;;32.23;29.07;;;27.80;43.10;;;;;;6252419;28;20230;-72
2021/04/29 08:12:50;;;;;;;29.60;26.70;;;27.30;44.10;;;;;;6252370;28;20227;-69
2021/04/29 08:15:52;;;;;;;31.73;28.27;;;26.60;44.80;;;;;;6253238;28;20228;-74
2021/04/29 08:18:56;;;;;;;29.60;26.50;;;25.70;47.70;;;;;;6253138;28;20334;-72
2021/04/29 08:22:18;;;;;;;26.73;24.00;;;26.80;46.30;;;;;;6252971;28;20238;-72
2021/04/29 08:25:21;;;;;;;28.07;25.37;;;29.80;43.50;;;;;;6242402;28;20305;-70
2021/04/29 08:28:24;;;;;;;27.73;25.03;;;29.30;41.10;;;;;;6252363;28;20242;-69
2021/04/29 08:31:26;;;;;;;25.27;22.43;;;29.30;41.70;;;;;;6252454;28;20709;-67
2021/04/29 08:34:29;;;;;;;23.13;20.93;;;30.40;39.80;;;;;;6251723;28;20232;-68
2021/04/29 08:37:32;;;;;;;21.30;19.20;;;29.00;41.00;;;;;;6252262;28;20238;-65
2021/04/29 08:40:34;;;;;;;17.70;16.10;;;28.40;43.30;;;;;;6251991;28;20231;-67
2021/04/29 08:43:37;;;;;;;17.30;15.80;;;30.80;40.00;;;;;;6244063;28;20219;-65
2021/04/29 08:46:39;;;;;;;16.00;14.63;;;33.30;36.90;;;;;;6251951;28;20228;-64
2021/04/29 08:49:42;;;;;;;14.30;13.10;;;33.20;34.70;;;;;;6251420;28;20223;-62
2021/04/29 08:52:44;;;;;;;12.40;11.37;;;31.50;35.70;;;;;;6252188;28;20236;-62
2021/04/29 08:55:47;;;;;;;11.73;10.60;;;30.10;36.90;;;;;;6252260;28;20318;-66
2021/04/29 08:58:50;;;;;;;11.40;10.40;;;28.60;38.90;;;;;;6251369;28;20226;-63
2021/04/29 09:01:52;;;;;;;12.40;10.50;;;27.80;40.00;;;;;;6252166;28;20238;-67
2021/04/29 09:04:55;;;;;;;13.97;12.67;;;27.00;42.60;;;;;;6251814;28;20257;-65
2021/04/29 09:08:01;;;;;;;12.47;10.97;;;26.70;43.10;;;;;;6251612;28;20232;-66
2021/04/29 09:11:08;;;;;;;13.37;12.20;;;26.50;44.20;;;;;;6251676;28;20223;-65
2021/04/29 09:14:10;;;;;;;13.23;11.83;;;26.40;44.70;;;;;;6237304;28;20238;-66
2021/04/29 09:17:23;;;;;;;13.93;12.57;;;26.20;45.00;;;;;;6251379;28;20578;-67
2021/04/29 09:20:26;;;;;;;13.50;12.10;;;26.00;46.10;;;;;;6251172;28;20253;-65
2021/04/29 09:23:30;;;;;;;12.17;10.93;;;25.60;45.50;;;;;;6251660;28;20240;-65
2021/04/29 09:26:34;;;;;;;11.80;10.67;;;25.20;46.40;;;;;;6250856;28;20228;-65
2021/04/29 09:29:36;;;;;;;9.97;9.07;;;24.60;46.70;;;;;;6251049;28;20225;-67
2021/04/29 09:32:39;;;;;;;9.70;8.77;;;24.10;47.30;;;;;;6250147;28;20244;-67
2021/04/29 09:35:43;;;;;;;9.70;8.60;;;23.50;48.60;;;;;;6250489;28;20231;-65
2021/04/29 09:38:51;;;;;;;9.80;8.90;;;22.80;50.20;;;;;;6250434;28;20231;-67
2021/04/29 09:41:53;;;;;;;12.27;8.70;;;22.20;51.40;;;;;;6251056;28;20240;-65
2021/04/29 09:44:56;;;;;;;10.30;8.40;;;22.10;52.30;;;;;;6248685;28;20697;-65
2021/04/29 09:48:00;;;;;;;9.30;8.23;;;22.00;52.20;;;;;;6250388;28;20227;-65
2021/04/29 09:51:08;;;;;;;9.80;8.60;;;22.00;52.30;;;;;;6250432;28;20201;-66
2021/04/29 09:54:10;;;;;;;10.03;8.10;;;21.90;52.90;;;;;;6250995;28;20243;-67
2021/04/29 09:57:16;;;;;;;9.87;8.63;;;21.80;53.70;;;;;;6250699;28;20212;-66
2021/04/29 10:00:19;;;;;;;9.07;7.70;;;22.20;53.90;;;;;;6250600;28;20188;-67
2021/04/29 10:03:21;;;;;;;8.60;7.80;;;22.60;53.50;;;;;;6249921;28;20232;-66
2021/04/29 10:06:25;;;;;;;9.90;8.90;;;22.70;53.00;;;;;;6250356;28;20243;-65
2021/04/29 10:09:29;;;;;;;11.13;9.47;;;22.70;52.90;;;;;;6250037;28;20242;-65
2021/04/29 10:12:31;;;;;;;11.67;9.30;;;22.50;53.50;;;;;;6249519;28;20231;-70
2021/04/29 10:15:34;;;;;;;11.90;9.37;;;22.40;54.00;;;;;;6250359;28;20228;-66
2021/04/29 10:18:38;;;;;;;11.73;9.77;;;21.90;55.30;;;;;;6249799;28;20232;-65
2021/04/29 10:21:41;;;;;;;15.03;9.47;;;22.10;55.20;;;;;;6249888;28;20680;-65
2021/04/29 10:24:44;;;;;;;10.27;9.17;;;22.30;54.90;;;;;;6249386;28;20236;-62
2021/04/29 10:27:47;;;;;;;10.73;9.60;;;22.50;55.10;;;;;;6250104;28;20240;-63
2021/04/29 10:30:49;;;;;;;10.40;9.07;;;22.80;54.80;;;;;;6249654;28;20553;-63
2021/04/29 10:33:54;;;;;;;11.27;9.97;;;22.90;54.50;;;;;;6248674;28;20236;-62
2021/04/29 10:36:57;;;;;;;14.10;11.20;;;23.10;54.20;;;;;;6248287;28;20397;-62
2021/04/29 10:40:02;;;;;;;11.10;8.57;;;23.30;54.30;;;;;;6249243;28;20250;-63
2021/04/29 10:43:05;;;;;;;9.70;8.70;;;23.40;53.20;;;;;;6248156;28;20346;-62
2021/04/29 10:46:08;;;;;;;12.57;9.17;;;23.50;53.40;;;;;;6249219;28;20576;-62
2021/04/29 10:49:13;;;;;;;8.47;7.30;;;23.40;53.00;;;;;;6249648;28;20236;-62
2021/04/29 10:52:16;;;;;;;10.63;7.17;;;23.60;53.90;;;;;;6249070;28;20236;-61
2021/04/29 10:55:23;;;;;;;11.80;7.83;;;23.70;52.10;;;;;;6249014;28;20574;-62
2021/04/29 10:58:25;;;;;;;8.30;7.50;;;23.70;52.50;;;;;;6248988;28;20308;-58
2021/04/29 11:01:38;;;;;;;11.07;7.00;;;23.80;53.40;;;;;;6249257;28;20228;-62
2021/04/29 11:04:42;;;;;;;6.43;5.80;;;23.90;52.70;;;;;;6248026;28;20228;-64
2021/04/29 11:07:47;;;;;;;5.43;4.50;;;23.90;52.50;;;;;;6249161;28;20286;-64
2021/04/29 11:10:50;;;;;;;5.13;4.27;;;23.90;50.90;;;;;;6248950;28;20238;-65
2021/04/29 11:14:06;;;;;;;6.53;5.93;;;24.10;50.50;;;;;;6251932;28;20238;-65
2021/04/29 11:17:19;;;;;;;4.63;4.23;;;24.20;51.20;;;;;;6240916;28;20240;-74
2021/04/29 11:20:21;;;;;;;4.67;3.97;;;24.30;49.20;;;;;;6249462;28;20308;-70
2021/04/29 11:23:37;;;;;;;4.00;3.60;;;24.40;48.50;;;;;;6252619;28;20293;-68
2021/04/29 11:26:41;;;;;;;4.17;3.80;;;23.90;48.90;;;;;;6253742;28;20628;-70
2021/04/29 11:29:43;;;;;;;7.73;7.00;;;23.40;50.00;;;;;;6253516;28;20238;-66
2021/04/29 11:32:54;;;;;;;6.30;4.50;;;23.00;49.70;;;;;;6253648;28;20231;-65
2021/04/29 11:35:56;;;;;;;5.47;3.27;;;23.30;50.50;;;;;;6253183;28;20228;-67
2021/04/29 11:39:04;;;;;;;3.50;3.03;;;23.60;49.30;;;;;;6253746;28;20239;-67
2021/04/29 11:42:09;;;;;;;5.27;3.60;;;24.10;48.40;;;;;;6252292;28;20300;-66
2021/04/29 11:45:14;;;;;;;4.30;2.40;;;24.50;48.10;;;;;;6249784;28;20302;-66
2021/04/29 11:48:17;;;;;;;3.40;2.77;;;24.80;47.60;;;;;;6253165;28;20219;-66
2021/04/29 11:51:19;;;;;;;2.57;2.20;;;24.80;46.10;;;;;;6252962;28;20539;-67
2021/04/29 11:54:22;;;;;;;2.60;2.40;;;24.60;46.00;;;;;;6253122;28;20227;-68
2021/04/29 11:57:24;;;;;;;2.53;2.33;;;24.70;46.10;;;;;;6252677;28;20578;-67
2021/04/29 12:00:32;;;;;;;2.33;1.97;;;24.90;45.90;;;;;;6253352;28;20232;-64
2021/04/29 12:03:34;;;;;;;2.87;2.10;;;25.00;44.40;;;;;;6252335;28;20240;-65
2021/04/29 12:06:47;;;;;;;2.20;2.00;;;25.10;44.50;;;;;;6252705;28;20251;-68
2021/04/29 12:09:53;;;;;;;3.43;2.30;;;25.30;44.30;;;;;;6251677;28;20224;-66
2021/04/29 12:12:55;;;;;;;3.93;2.30;;;25.70;44.00;;;;;;6250067;28;20236;-67
2021/04/29 12:15:58;;;;;;;2.13;1.93;;;25.80;43.10;;;;;;6252595;28;20250;-68
2021/04/29 12:19:03;;;;;;;2.87;2.13;;;25.70;43.00;;;;;;6252611;28;20220;-62
2021/04/29 12:22:05;;;;;;;2.03;1.83;;;26.00;41.70;;;;;;6251968;28;20227;-66
2021/04/29 12:25:19;;;;;;;2.83;2.10;;;26.20;41.30;;;;;;6247112;28;20293;-68
2021/04/29 12:28:22;;;;;;;2.17;1.80;;;26.50;40.60;;;;;;6249454;28;20700;-65
2021/04/29 12:31:24;;;;;;;3.67;1.90;;;26.80;40.20;;;;;;6252295;28;20236;-61
2021/04/29 12:34:26;;;;;;;1.90;1.73;;;26.80;40.00;;;;;;6251694;28;20255;-68
2021/04/29 12:37:29;;;;;;;2.40;2.20;;;27.00;38.90;;;;;;6252360;28;20251;-67
2021/04/29 12:40:33;;;;;;;1.70;1.60;;;27.20;39.30;;;;;;6252017;28;20224;-62
2021/04/29 12:43:36;;;;;;;2.47;2.27;;;27.40;38.40;;;;;;6227687;28;20243;-67
2021/04/29 12:46:43;;;;;;;2.23;1.57;;;27.10;39.10;;;;;;6235337;28;20680;-67
2021/04/29 12:49:55;;;;;;;1.83;1.73;;;27.00;39.10;;;;;;6227816;28;20239;-65
2021/04/29 12:52:59;;;;;;;2.53;1.67;;;26.60;40.80;;;;;;6227301;28;20597;-68
2021/04/29 12:56:06;;;;;;;2.70;1.33;;;26.40;42.20;;;;;;6241250;28;20294;-66
2021/04/29 12:59:12;;;;;;;4.53;1.80;;;25.90;42.10;;;;;;6226702;28;20233;-62
2021/04/29 13:02:19;;;;;;;3.43;1.20;;;25.60;43.80;;;;;;6226560;28;20312;-67
2021/04/29 13:05:24;;;;;;;1.60;1.40;;;24.90;44.10;;;;;;6226892;28;20233;-62
2021/04/29 13:08:26;;;;;;;5.07;1.20;;;24.40;43.70;;;;;;6232038;28;20229;-58
2021/04/29 13:11:37;;;;;;;1.80;1.40;;;24.60;43.20;;;;;;6251365;28;20224;-59
2021/04/29 13:14:41;;;;;;;1.40;1.30;;;24.60;42.80;;;;;;6250759;28;20692;-58
2021/04/29 13:17:45;;;;;;;1.33;1.17;;;24.60;43.60;;;;;;6251597;28;20225;-67
2021/04/29 13:20:48;;;;;;;1.73;1.63;;;24.70;44.70;;;;;;6251465;28;20255;-68
2021/04/29 13:23:50;;;;;;;2.27;1.47;;;25.00;43.80;;;;;;6251500;28;20236;-59
2021/04/29 13:26:55;;;;;;;4.23;1.40;;;25.20;42.90;;;;;;6250595;28;20220;-61
2021/04/29 13:29:58;;;;;;;3.00;1.50;;;25.50;43.20;;;;;;6242790;28;20746;-61
2021/04/29 13:33:00;;;;;;;3.10;1.20;;;25.70;43.20;;;;;;6250513;28;20325;-64
2021/04/29 13:36:02;;;;;;;3.47;1.10;;;26.00;42.80;;;;;;6268580;28;20237;-66
2021/04/29 13:39:05;;;;;;;1.67;0.80;;;25.90;43.00;;;;;;6275400;28;20644;-65
2021/04/29 13:42:09;;;;;;;1.43;0.90;;;25.80;43.20;;;;;;6262207;28;20286;-69
2021/04/29 13:45:12;;;;;;;1.00;0.90;;;25.50;43.50;;;;;;6250411;28;20310;-65
2021/04/29 13:48:15;;;;;;;0.80;0.57;;;25.40;42.10;;;;;;6250697;28;20632;-68
2021/04/29 13:51:20;;;;;;;2.30;0.90;;;25.40;42.70;;;;;;6251054;28;20417;-66
2021/04/29 13:54:23;;;;;;;1.23;0.67;;;25.50;42.60;;;;;;6249869;28;20258;-69
2021/04/29 13:57:27;;;;;;;1.10;0.90;;;25.60;42.60;;;;;;6246097;28;20294;-68
2021/04/29 14:00:29;;;;;;;3.23;0.80;;;25.50;43.20;;;;;;6248314;28;20232;-67
2021/04/29 14:03:31;;;;;;;3.30;0.80;;;25.10;42.70;;;;;;6248026;28;20690;-68
2021/04/29 14:06:33;;;;;;;2.37;0.93;;;24.70;44.00;;;;;;6247850;28;20692;-68
2021/04/29 14:09:36;;;;;;;3.53;1.00;;;24.60;44.10;;;;;;6248178;28;20235;-67
2021/04/29 14:12:39;;;;;;;1.00;0.80;;;24.80;42.90;;;;;;6247973;28;20236;-69
2021/04/29 14:15:41;;;;;;;4.30;0.90;;;24.90;42.80;;;;;;6248380;28;20232;-65
2021/04/29 14:18:44;;;;;;;2.10;1.10;;;24.90;42.90;;;;;;6251903;28;20255;-66
2021/04/29 14:21:49;;;;;;;4.13;1.03;;;25.00;43.40;;;;;;6249665;28;20247;-69
2021/04/29 14:24:51;;;;;;;2.10;0.83;;;25.00;42.70;;;;;;6249692;28;20239;-66
2021/04/29 14:27:55;;;;;;;2.00;1.00;;;25.00;39.30;;;;;;6249598;28;20239;-68
2021/04/29 14:31:00;;;;;;;1.80;0.90;;;24.80;40.30;;;;;;6244991;28;20231;-69
2021/04/29 14:34:03;;;;;;;2.00;0.80;;;24.70;40.30;;;;;;6249291;28;20228;-68
2021/04/29 14:37:05;;;;;;;0.77;0.63;;;24.70;40.10;;;;;;6249534;28;20363;-63
2021/04/29 14:40:09;;;;;;;1.13;0.70;;;24.70;40.60;;;;;;6249738;28;20339;-67
2021/04/29 14:43:12;;;;;;;2.60;0.90;;;24.50;40.80;;;;;;6247364;28;20232;-69
2021/04/29 14:46:15;;;;;;;2.60;0.70;;;24.20;41.40;;;;;;6247344;28;20255;-65
2021/04/29 14:49:17;;;;;;;1.67;0.83;;;23.90;42.30;;;;;;6246384;28;20232;-67
2021/04/29 14:52:19;;;;;;;3.17;0.70;;;23.70;44.30;;;;;;6247213;28;20242;-65
2021/04/29 14:55:22;;;;;;;5.40;0.80;;;23.20;46.20;;;;;;6247314;28;20239;-64
2021/04/29 14:58:25;;;;;;;6.00;0.80;;;23.00;47.30;;;;;;6248700;28;20243;-64
2021/04/29 15:01:27;;;;;;;3.50;0.73;;;22.80;47.30;;;;;;6249411;28;20228;-65
2021/04/29 15:04:29;;;;;;;6.17;1.57;;;22.70;47.60;;;;;;6248707;28;20540;-67
2021/04/29 15:07:31;;;;;;;5.60;1.30;;;22.50;48.70;;;;;;6249006;28;20235;-65
2021/04/29 15:10:36;;;;;;;6.33;1.00;;;22.40;48.30;;;;;;6248836;28;20247;-61
2021/04/29 15:14:00;;;;;;;5.67;0.73;;;22.30;48.70;;;;;;6249060;28;20239;-65
2021/04/29 15:17:02;;;;;;;3.80;1.00;;;22.10;49.50;;;;;;6248751;28;20232;-65
2021/04/29 15:20:11;;;;;;;2.40;0.57;;;22.20;49.60;;;;;;6249004;28;20236;-64
2021/04/29 15:23:13;;;;;;;2.90;1.07;;;22.20;49.50;;;;;;6248472;28;20240;-66
2021/04/29 15:26:16;;;;;;;3.83;1.00;;;22.10;49.70;;;;;;6247842;28;20216;-64
2021/04/29 15:29:20;;;;;;;0.70;0.50;;;22.10;49.30;;;;;;6248785;28;20232;-66
2021/04/29 15:32:22;;;;;;;3.90;1.10;;;22.10;49.30;;;;;;6248695;28;20228;-66
2021/04/29 15:35:25;;;;;;;3.03;0.60;;;22.10;49.00;;;;;;6248584;28;20231;-64
2021/04/29 15:38:27;;;;;;;4.50;1.00;;;22.10;49.10;;;;;;6248636;28;20684;-66